アンタナナリボ の空港の天気 - METARとTAF

イヴァト空港(アンタナナリボ) ( FMMI / TNR ) - マダガスカル アンタナナリボ
飛行場実況気象(Metar)
観測時間10/26 01:00 EAT (10/25 22:00 UTC)
風向・風速東 2m/s
視程10km以上
天気現象
少しの雲 雲底高度 520m
全天の8割程度の雲 雲底高度 610m
気温16℃
湿度82%
気圧1021hPa
METARFMMI 252200Z 08004KT 9999 FEW017 BKN020 16/13 Q1021 NOSIG
過去の天気等 Google飛行場航空写真 Wunderground天気予報

過去48時間のMETAR

飛行場予報(TAF)
発表時間: -
25日23時 EAT ~ 26日1時 EAT に徐々に
風向・風速南南東 3m/s
26日11時 EAT ~ 26日13時 EAT に徐々に
全天の4割程度の積乱雲 雲底高度 610m
26日15時 EAT ~ 26日17時 EAT に 確率 40% で一時的に
風向・風速不定 8m/s
26日15時 EAT ~ 26日24時 EAT に 確率 40% で一時的に
視程4000m
天気現象雷雨
26日23時 EAT ~ 27日1時 EAT に徐々に
少しの雲 雲底高度 520m
全天の8割程度の雲 雲底高度 610m
TAF
FMMI 251700Z 2518/2624 10012KT 9999 FEW017 BKN020
BECMG 2520/2522 16005KT
BECMG 2608/2610 SCT020CB
PROB40 TEMPO 2612/2614 VRB15KT
PROB40 TEMPO 2612/2621 4000 TSRA
BECMG 2620/2622 FEW017 BKN020